Time;durP1;ratioP1;P1;durP2;ratioP2;P2;SDS_P1;SDS_P2;PMS_P1;PMS_P2;Temp;Humidity;BMP_temperature;BMP_pressure;BME280_temperature;BME280_humidity;BME280_pressure;Samples;Min_cycle;Max_cycle;Signal;HPM_P1;HPM_P2
2021/04/17 00:01:46;;;;;;;8.00;5.30;;;;;;;7.26;83.16;99290.51;1730529;82;21158;-63
2021/04/17 00:04:14;;;;;;;6.75;5.75;;;;;;;7.37;83.25;99313.30;1707847;84;21586;-62
2021/04/17 00:06:42;;;;;;;7.47;5.60;;;;;;;7.33;83.36;99311.40;1735574;82;21424;-62
2021/04/17 00:09:12;;;;;;;7.10;6.12;;;;;;;7.30;83.36;99318.66;1750099;82;21227;-62
2021/04/17 00:11:42;;;;;;;5.72;4.92;;;;;;;7.33;83.31;99314.90;1724313;82;21303;-62
2021/04/17 00:14:14;;;;;;;5.92;4.97;;;;;;;7.35;83.23;99315.47;1711077;82;21222;-63
2021/04/17 00:16:43;;;;;;;6.05;4.78;;;;;;;7.35;83.15;99315.47;1715640;82;21306;-63
2021/04/17 00:19:10;;;;;;;8.18;5.47;;;;;;;7.28;83.27;99317.59;1744495;82;21857;-63
2021/04/17 00:21:38;;;;;;;6.67;4.92;;;;;;;7.23;83.47;99320.25;1744601;82;21351;-63
2021/04/17 00:24:06;;;;;;;6.83;5.37;;;;;;;7.24;83.44;99313.77;1736331;82;21630;-63
2021/04/17 00:26:34;;;;;;;7.37;5.25;;;;;;;7.24;83.33;99319.72;1752987;81;21148;-62
2021/04/17 00:29:04;;;;;;;5.92;5.22;;;;;;;7.20;83.29;99316.71;1756571;81;21169;-62
2021/04/17 00:31:33;;;;;;;6.30;5.37;;;;;;;7.17;83.32;99314.53;1758680;81;21136;-62
2021/04/17 00:34:00;;;;;;;7.70;5.10;;;;;;;7.12;83.33;99328.02;1758490;81;21701;-62
2021/04/17 00:36:27;;;;;;;7.75;5.33;;;;;;;7.06;83.50;99319.58;1752093;81;21117;-61
2021/04/17 00:38:55;;;;;;;6.85;5.58;;;;;;;7.00;83.68;99328.74;1742172;81;21683;-62
2021/04/17 00:41:23;;;;;;;6.50;5.25;;;;;;;6.99;83.63;99324.39;1757817;81;21283;-62
2021/04/17 00:43:51;;;;;;;5.25;4.60;;;;;;;6.97;83.58;99335.50;1754129;81;21311;-62
2021/04/17 00:46:19;;;;;;;6.35;4.37;;;;;;;6.98;83.60;99329.52;1754749;81;21416;-62
2021/04/17 00:48:47;;;;;;;6.85;5.12;;;;;;;6.97;83.59;99327.91;1747837;81;21186;-62
2021/04/17 00:51:14;;;;;;;6.62;5.25;;;;;;;6.96;83.71;99327.63;1741734;81;21287;-62
2021/04/17 00:53:42;;;;;;;6.53;5.35;;;;;;;6.90;83.85;99328.66;1757936;81;21837;-62
2021/04/17 00:56:11;;;;;;;5.60;4.60;;;;;;;6.94;83.84;99329.78;1758359;81;21121;-62
2021/04/17 00:58:39;;;;;;;7.65;5.00;;;;;;;6.99;83.76;99337.92;1755323;81;21218;-62
2021/04/17 01:01:06;;;;;;;6.08;5.25;;;;;;;6.99;83.66;99330.63;1753857;81;21168;-63
2021/04/17 01:04:05;;;;;;;6.95;5.30;;;;;;;6.99;83.67;99337.92;1738815;81;21162;-63
2021/04/17 01:06:48;;;;;;;7.45;5.92;;;;;;;6.89;83.79;99336.49;1758501;81;21158;-63
2021/04/17 01:09:42;;;;;;;7.12;5.78;;;;;;;6.84;83.89;99339.96;1743764;81;21160;-62
2021/04/17 01:12:15;;;;;;;7.53;5.97;;;;;;;6.79;83.84;99335.88;1744259;81;21285;-62
2021/04/17 01:14:46;;;;;;;7.33;5.30;;;;;;;6.77;83.91;99335.83;1745061;81;21719;-63
2021/04/17 01:17:14;;;;;;;7.45;4.75;;;;;;;6.73;83.89;99336.88;1758202;81;21287;-63
2021/04/17 01:23:26;;;;;;;6.83;5.85;;;;;;;6.77;83.99;99331.23;1794885;79;28140;-63
2021/04/17 01:26:10;;;;;;;7.28;5.53;;;;;;;6.98;83.35;99335.75;1790855;80;21176;-61
2021/04/17 01:28:41;;;;;;;6.97;5.62;;;;;;;7.14;82.80;99334.00;1754763;81;21604;-63
2021/04/17 01:31:11;;;;;;;7.90;6.67;;;;;;;7.08;82.94;99340.45;1726642;81;21207;-63
2021/04/17 01:33:42;;;;;;;7.92;6.83;;;;;;;6.98;82.96;99343.88;1698006;83;21198;-63
2021/04/17 01:36:10;;;;;;;7.30;6.47;;;;;;;6.90;83.00;99350.31;1749647;81;21189;-63
2021/04/17 01:38:45;;;;;;;7.28;6.12;;;;;;;6.82;83.21;99351.59;1732253;81;21206;-62
2021/04/17 01:41:33;;;;;;;8.88;6.65;;;;;;;6.78;83.27;99349.64;1712287;83;21156;-63
2021/04/17 01:44:08;;;;;;;7.97;6.55;;;;;;;6.75;83.30;99347.45;1720498;83;21165;-64
2021/04/17 01:46:45;;;;;;;8.63;7.50;;;;;;;6.72;83.47;99354.73;1732078;81;21180;-62
2021/04/17 01:49:14;;;;;;;9.18;6.53;;;;;;;6.62;83.76;99354.11;1731540;81;21176;-63
2021/04/17 01:51:43;;;;;;;9.03;7.45;;;;;;;6.44;83.86;99332.29;1744366;81;21303;-62
2021/04/17 01:54:24;;;;;;;10.63;7.85;;;;;;;6.56;83.85;99356.98;1737374;81;21176;-62
2021/04/17 01:56:53;;;;;;;9.55;6.92;;;;;;;6.54;83.81;99354.55;1729617;83;21330;-63
2021/04/17 01:59:21;;;;;;;9.95;7.83;;;;;;;6.52;83.92;99347.78;1730062;83;21214;-63
2021/04/17 02:01:49;;;;;;;11.48;8.50;;;;;;;6.50;83.98;99352.08;1733028;81;21712;-62
2021/04/17 02:04:17;;;;;;;9.50;7.72;;;;;;;6.47;83.87;99349.88;1758861;81;21581;-63
2021/04/17 02:06:44;;;;;;;10.53;9.38;;;;;;;6.47;83.92;99352.05;1740969;81;21299;-63
2021/04/17 02:09:11;;;;;;;13.25;11.20;;;;;;;6.42;84.03;99355.22;1709399;82;21184;-63
2021/04/17 02:11:40;;;;;;;14.93;12.58;;;;;;;6.37;84.10;99356.00;1712064;82;21153;-63
2021/04/17 02:14:08;;;;;;;15.70;13.15;;;;;;;6.38;84.09;99356.80;1714012;82;21188;-63
2021/04/17 02:17:03;;;;;;;16.25;14.53;;;;;;;6.35;84.08;99355.42;1720920;82;22093;-63
2021/04/17 02:19:41;;;;;;;14.87;13.28;;;;;;;6.31;83.97;99362.41;1721204;82;21311;-63
2021/04/17 02:22:10;;;;;;;15.75;14.05;;;;;;;6.24;84.02;99355.55;1710681;82;21178;-63
2021/04/17 02:24:39;;;;;;;16.93;13.85;;;;;;;6.17;84.13;99364.39;1749695;81;21174;-63
2021/04/17 02:27:07;;;;;;;15.63;13.62;;;;;;;6.13;84.14;99366.78;1749608;80;21133;-63
2021/04/17 02:29:35;;;;;;;15.48;13.80;;;;;;;6.11;84.19;99367.58;1749379;81;21167;-62
2021/04/17 02:32:02;;;;;;;15.43;13.83;;;;;;;6.11;84.20;99366.23;1753383;81;21726;-63
2021/04/17 02:34:32;;;;;;;15.28;13.40;;;;;;;6.08;84.21;99369.44;1745718;81;21319;-63
2021/04/17 02:36:59;;;;;;;15.68;14.00;;;;;;;6.02;84.17;99371.80;1735403;82;21165;-63
2021/04/17 02:39:26;;;;;;;14.33;12.90;;;;;;;5.98;84.22;99366.61;1764185;81;21300;-63
2021/04/17 02:41:54;;;;;;;14.65;12.05;;;;;;;5.97;84.12;99373.89;1751295;81;21301;-63
2021/04/17 02:44:22;;;;;;;14.00;12.63;;;;;;;5.96;84.16;99376.30;1746128;81;21623;-63
2021/04/17 02:46:49;;;;;;;12.95;11.65;;;;;;;5.90;84.16;99377.31;1750551;81;21721;-63
2021/04/17 02:49:17;;;;;;;13.30;11.83;;;;;;;5.92;84.17;99381.09;1754749;81;21163;-62
2021/04/17 02:51:44;;;;;;;11.93;10.45;;;;;;;5.93;84.19;99384.91;1752857;80;21429;-64
2021/04/17 02:54:12;;;;;;;13.60;12.13;;;;;;;5.94;84.09;99391.14;1748134;80;21155;-63
2021/04/17 02:56:39;;;;;;;12.65;11.35;;;;;;;5.93;83.99;99391.66;1748326;81;21328;-63
2021/04/17 02:59:06;;;;;;;14.33;12.82;;;;;;;5.96;84.02;99403.84;1710071;83;21165;-62
2021/04/17 03:01:34;;;;;;;13.22;11.80;;;;;;;5.88;84.06;99401.04;1751585;80;21629;-63
2021/04/17 03:04:01;;;;;;;15.30;13.70;;;;;;;5.88;84.20;99403.73;1735873;82;21339;-63
2021/04/17 03:06:29;;;;;;;13.68;12.20;;;;;;;5.97;84.12;99402.80;1747596;81;21175;-63
2021/04/17 03:08:56;;;;;;;13.85;12.18;;;;;;;6.05;84.00;99411.83;1762101;81;21721;-63
2021/04/17 03:11:23;;;;;;;12.80;11.50;;;;;;;6.05;83.89;99412.36;1765103;80;21143;-63
2021/04/17 03:13:53;;;;;;;13.40;12.10;;;;;;;5.98;83.88;99418.77;1751804;81;21174;-63
2021/04/17 03:16:21;;;;;;;13.32;11.93;;;;;;;5.98;83.83;99416.06;1749149;81;21263;-63
2021/04/17 03:18:48;;;;;;;14.15;12.65;;;;;;;5.95;83.68;99423.84;1776801;81;22128;-63
2021/04/17 03:21:16;;;;;;;12.28;11.08;;;;;;;5.90;83.68;99423.77;1730495;82;21158;-64
2021/04/17 03:23:43;;;;;;;12.25;10.95;;;;;;;5.87;83.77;99425.09;1769676;80;21169;-63
2021/04/17 03:26:11;;;;;;;10.90;9.80;;;;;;;5.81;83.63;99423.89;1768693;80;21417;-63
2021/04/17 03:28:39;;;;;;;11.85;10.63;;;;;;;5.75;83.73;99420.28;1755248;80;21195;-63
2021/04/17 03:31:06;;;;;;;10.90;9.55;;;;;;;5.73;83.81;99428.35;1765270;80;21315;-63
2021/04/17 03:33:34;;;;;;;11.65;10.30;;;;;;;5.70;83.84;99432.91;1758417;80;21641;-62
2021/04/17 03:36:01;;;;;;;10.58;9.48;;;;;;;5.65;83.95;99434.98;1770585;80;21617;-63
2021/04/17 03:38:28;;;;;;;12.30;9.70;;;;;;;5.66;83.97;99437.98;1755045;82;21314;-63
2021/04/17 03:40:56;;;;;;;10.68;9.58;;;;;;;5.67;83.95;99442.85;1755584;80;21167;-63
2021/04/17 03:43:23;;;;;;;11.28;10.08;;;;;;;5.68;84.03;99443.94;1753855;80;21597;-63
2021/04/17 03:45:50;;;;;;;11.12;9.50;;;;;;;5.65;84.19;99445.79;1762757;80;21472;-63
2021/04/17 03:48:17;;;;;;;9.93;8.70;;;;;;;5.67;84.18;99446.91;1754104;80;21727;-63
2021/04/17 03:50:44;;;;;;;10.32;9.28;;;;;;;5.70;84.04;99451.28;1713362;84;21675;-63
2021/04/17 03:53:12;;;;;;;10.50;9.40;;;;;;;5.70;84.01;99452.63;1766176;80;21287;-63
2021/04/17 03:55:39;;;;;;;10.28;9.18;;;;;;;5.74;84.02;99455.66;1755772;80;21578;-63
2021/04/17 03:58:08;;;;;;;10.63;9.50;;;;;;;5.79;84.14;99464.64;1773193;80;21120;-63
2021/04/17 04:00:36;;;;;;;9.10;8.13;;;;;;;5.81;84.29;99457.09;1762622;80;21146;-63
2021/04/17 04:03:03;;;;;;;8.00;7.20;;;;;;;5.89;84.12;99462.64;1776752;80;21177;-63
2021/04/17 04:05:31;;;;;;;8.80;7.45;;;;;;;5.98;83.93;99463.88;1765745;80;21303;-63
2021/04/17 04:08:00;;;;;;;8.98;8.00;;;;;;;6.01;83.68;99466.08;1721131;82;21163;-63
2021/04/17 04:10:27;;;;;;;9.20;7.55;;;;;;;5.94;83.78;99472.19;1778659;80;21150;-63
2021/04/17 04:12:54;;;;;;;8.95;8.05;;;;;;;5.93;83.77;99480.83;1754969;81;21183;-63
2021/04/17 04:15:21;;;;;;;7.47;6.67;;;;;;;5.97;83.59;99471.69;1732069;80;21157;-63
2021/04/17 04:17:49;;;;;;;9.83;7.22;;;;;;;6.04;83.50;99474.21;1773945;80;21175;-63
2021/04/17 04:20:18;;;;;;;8.25;7.20;;;;;;;6.04;83.34;99483.14;1722829;82;21183;-63
2021/04/17 04:22:46;;;;;;;8.15;7.33;;;;;;;6.00;83.47;99484.17;1751243;80;21311;-63
2021/04/17 04:25:15;;;;;;;8.45;7.20;;;;;;;5.95;83.47;99490.84;1720283;82;21130;-63
2021/04/17 04:27:42;;;;;;;7.65;6.85;;;;;;;5.98;83.35;99489.02;1749590;81;21293;-63
2021/04/17 04:30:10;;;;;;;7.40;6.67;;;;;;;6.02;83.24;99488.52;1755197;80;21124;-63
2021/04/17 04:32:38;;;;;;;7.80;6.80;;;;;;;6.06;83.27;99493.16;1729454;82;21287;-63
2021/04/17 04:35:08;;;;;;;8.33;7.30;;;;;;;6.03;83.37;99503.11;1771784;81;21177;-63
2021/04/17 04:37:35;;;;;;;8.58;7.15;;;;;;;6.03;83.33;99496.88;1738060;82;21117;-63
2021/04/17 04:40:06;;;;;;;8.30;7.40;;;;;;;6.07;83.12;99501.55;1777565;81;21203;-63
2021/04/17 04:42:34;;;;;;;7.97;7.17;;;;;;;6.06;83.06;99506.66;1726772;82;21576;-63
2021/04/17 04:45:03;;;;;;;8.05;7.22;;;;;;;6.04;83.06;99508.81;1706880;83;21911;-64
2021/04/17 04:47:32;;;;;;;8.50;7.53;;;;;;;6.06;83.07;99510.72;1752043;80;21323;-63
2021/04/17 04:49:59;;;;;;;9.75;7.65;;;;;;;6.06;83.28;99508.02;1733568;82;21203;-63
2021/04/17 04:52:27;;;;;;;7.97;7.17;;;;;;;6.06;83.41;99510.72;1774254;80;21299;-63
2021/04/17 04:54:54;;;;;;;7.95;7.15;;;;;;;6.13;83.43;99510.02;1718657;82;21569;-63
2021/04/17 04:57:22;;;;;;;8.03;6.50;;;;;;;6.20;83.16;99514.70;1763643;80;21297;-63
2021/04/17 04:59:49;;;;;;;7.87;6.87;;;;;;;6.23;82.86;99521.53;1749526;81;21158;-64
2021/04/17 05:02:16;;;;;;;9.35;6.97;;;;;;;6.22;82.68;99520.70;1755796;80;21188;-63
2021/04/17 05:04:45;;;;;;;8.13;7.30;;;;;;;6.18;82.76;99526.84;1731457;82;21292;-63
2021/04/17 05:07:13;;;;;;;6.50;5.90;;;;;;;6.22;82.71;99525.28;1747375;81;21620;-64
2021/04/17 05:09:41;;;;;;;7.30;6.47;;;;;;;6.29;82.32;99525.40;1770374;80;21168;-63
2021/04/17 05:12:30;;;;;;;7.30;5.83;;;;;;;6.26;81.92;99534.02;1712618;82;21179;-62
2021/04/17 05:14:58;;;;;;;6.70;5.95;;;;;;;6.24;81.96;99536.13;1753896;81;21134;-64
2021/04/17 05:17:25;;;;;;;7.55;6.62;;;;;;;6.15;81.88;99543.03;1773313;80;21549;-63
2021/04/17 05:19:53;;;;;;;7.00;5.28;;;;;;;6.10;81.78;99540.23;1773547;81;21275;-64
2021/04/17 05:22:21;;;;;;;8.70;7.25;;;;;;;6.12;81.67;99542.71;1773420;80;21336;-63
2021/04/17 05:24:50;;;;;;;8.45;7.65;;;;;;;6.11;81.58;99539.71;1773438;81;21121;-62
2021/04/17 05:27:17;;;;;;;10.35;8.58;;;;;;;6.00;81.62;99548.20;1773715;81;21169;-63
2021/04/17 05:29:45;;;;;;;8.13;6.80;;;;;;;5.90;81.72;99543.98;1773456;81;21593;-62
2021/04/17 05:32:12;;;;;;;6.20;5.40;;;;;;;5.90;81.70;99549.39;1773418;81;21090;-64
2021/04/17 05:34:41;;;;;;;7.12;5.72;;;;;;;5.87;81.55;99543.13;1774579;81;21294;-64
2021/04/17 05:37:09;;;;;;;6.80;5.83;;;;;;;5.82;81.53;99550.58;1773690;81;21151;-63
2021/04/17 05:39:36;;;;;;;5.85;4.97;;;;;;;5.73;81.85;99552.06;1773691;81;21134;-63
2021/04/17 05:42:05;;;;;;;6.78;5.72;;;;;;;5.73;82.10;99556.64;1773451;81;21263;-63
2021/04/17 05:44:33;;;;;;;6.35;5.70;;;;;;;5.74;81.98;99555.03;1773616;81;21336;-63
2021/04/17 05:47:00;;;;;;;6.30;5.50;;;;;;;5.79;82.08;99559.70;1773338;80;21196;-62
2021/04/17 05:49:28;;;;;;;6.65;5.78;;;;;;;5.82;82.17;99559.21;1756420;81;21138;-63
2021/04/17 05:51:55;;;;;;;7.35;6.03;;;;;;;5.82;82.26;99564.09;1773615;81;21125;-63
2021/04/17 05:54:22;;;;;;;7.70;5.17;;;;;;;5.77;82.34;99563.20;1773484;81;21129;-63
2021/04/17 05:56:50;;;;;;;6.90;5.58;;;;;;;5.78;82.49;99567.52;1770943;81;21688;-63
2021/04/17 05:59:17;;;;;;;6.20;5.20;;;;;;;5.83;82.33;99576.54;1773518;81;21640;-63
2021/04/17 06:01:45;;;;;;;6.53;5.40;;;;;;;5.85;82.25;99578.45;1773344;81;21153;-63
2021/04/17 06:04:14;;;;;;;6.80;6.08;;;;;;;5.90;82.38;99584.52;1773581;81;21259;-63
2021/04/17 06:06:42;;;;;;;6.85;6.15;;;;;;;5.94;82.34;99583.78;1773634;81;21125;-64
2021/04/17 06:09:09;;;;;;;7.35;6.65;;;;;;;5.97;82.61;99585.17;1780639;79;21097;-63
2021/04/17 06:11:37;;;;;;;8.15;6.37;;;;;;;6.05;82.30;99587.47;1769053;81;21565;-62
2021/04/17 06:14:04;;;;;;;7.05;6.12;;;;;;;6.14;82.03;99590.56;1727593;83;21323;-64
2021/04/17 06:16:31;;;;;;;6.83;6.00;;;;;;;6.19;81.78;99594.71;1692824;84;21647;-63
2021/04/17 06:19:01;;;;;;;7.95;6.35;;;;;;;6.19;81.63;99594.19;1708014;84;21710;-63
2021/04/17 06:21:28;;;;;;;7.45;6.12;;;;;;;6.18;81.64;99599.30;1692457;84;21793;-63
2021/04/17 06:23:56;;;;;;;8.05;6.55;;;;;;;6.22;81.59;99597.74;1712701;84;21304;-63
2021/04/17 06:26:23;;;;;;;6.65;5.55;;;;;;;6.24;81.42;99605.05;1713529;84;21557;-63
2021/04/17 06:28:51;;;;;;;6.12;5.50;;;;;;;6.30;81.41;99602.74;1712845;84;21367;-63
2021/04/17 06:31:18;;;;;;;7.33;6.03;;;;;;;6.26;81.38;99604.83;1713300;83;21171;-63
2021/04/17 06:33:46;;;;;;;6.70;5.40;;;;;;;6.25;81.37;99604.53;1694986;84;21839;-64
2021/04/17 06:36:15;;;;;;;6.33;5.33;;;;;;;6.34;81.15;99607.13;1713427;83;21136;-64
2021/04/17 06:38:43;;;;;;;5.60;4.67;;;;;;;6.38;81.11;99610.94;1713505;84;21215;-63
2021/04/17 06:41:10;;;;;;;5.95;4.70;;;;;;;6.43;81.03;99610.50;1713584;84;21633;-63
2021/04/17 06:43:38;;;;;;;5.25;4.15;;;;;;;6.40;81.08;99611.53;1713380;84;21169;-63
2021/04/17 06:46:05;;;;;;;6.05;4.67;;;;;;;6.41;81.23;99613.17;1672659;84;21211;-63
2021/04/17 06:48:33;;;;;;;5.35;4.42;;;;;;;6.47;81.08;99607.59;1713646;84;21165;-63
2021/04/17 06:51:02;;;;;;;6.12;4.78;;;;;;;6.60;81.04;99613.70;1715060;83;21376;-63
2021/04/17 06:53:30;;;;;;;6.58;5.65;;;;;;;6.64;80.81;99617.55;1713212;83;21169;-63
2021/04/17 06:55:58;;;;;;;9.10;7.22;;;;;;;6.62;81.04;99612.94;1673898;84;21300;-63
2021/04/17 06:58:25;;;;;;;9.43;7.92;;;;;;;6.64;80.87;99614.84;1713314;84;21629;-63
2021/04/17 07:00:52;;;;;;;6.53;5.03;;;;;;;6.74;80.92;99614.45;1713344;84;21168;-64
2021/04/17 07:03:19;;;;;;;8.63;7.40;;;;;;;6.86;80.79;99610.29;1713017;83;21134;-63
2021/04/17 07:05:47;;;;;;;6.37;5.17;;;;;;;6.91;80.57;99614.40;1713525;83;21588;-63
2021/04/17 07:08:14;;;;;;;5.95;3.90;;;;;;;6.92;80.99;99606.05;1668597;82;21585;-63
2021/04/17 07:10:42;;;;;;;5.72;3.75;;;;;;;7.01;80.64;99614.56;1713542;83;21165;-63
2021/04/17 07:13:11;;;;;;;3.95;2.98;;;;;;;7.12;80.33;99617.64;1712390;83;21319;-63
2021/04/17 07:15:40;;;;;;;3.62;2.90;;;;;;;7.25;79.78;99618.64;1677437;84;21157;-62
2021/04/17 07:18:29;;;;;;;4.83;3.10;;;;;;;7.35;79.72;99624.17;1658080;84;21551;-63
2021/04/17 07:21:20;;;;;;;3.72;2.87;;;;;;;7.42;79.43;99628.03;1675571;84;21206;-63
2021/04/17 07:23:48;;;;;;;3.25;2.60;;;;;;;7.48;78.55;99623.77;1726108;82;21361;-62
2021/04/17 07:26:26;;;;;;;2.72;2.20;;;;;;;7.50;77.73;99629.77;1738028;82;21152;-59
2021/04/17 07:29:02;;;;;;;4.12;2.62;;;;;;;7.57;77.78;99627.39;1727218;81;21143;-61
2021/04/17 07:31:32;;;;;;;3.62;2.98;;;;;;;7.64;77.37;99633.42;1729298;82;21145;-62
2021/04/17 07:34:13;;;;;;;4.47;3.02;;;;;;;7.64;77.14;99638.31;1731431;82;21666;-62
2021/04/17 07:36:58;;;;;;;3.25;2.70;;;;;;;7.67;76.67;99638.33;1753493;82;21702;-61
2021/04/17 07:39:38;;;;;;;3.35;2.37;;;;;;;7.64;76.43;99638.31;1754152;80;21730;-62
2021/04/17 07:42:11;;;;;;;2.95;2.45;;;;;;;7.60;76.99;99639.88;1746043;82;21148;-61
2021/04/17 07:44:42;;;;;;;2.25;1.57;;;;;;;7.65;77.67;99640.48;1704507;82;21294;-61
2021/04/17 07:47:12;;;;;;;3.27;2.00;;;;;;;7.79;77.16;99650.67;1725006;82;21316;-61
2021/04/17 07:49:40;;;;;;;2.45;1.92;;;;;;;7.95;76.87;99645.66;1726358;82;21169;-61
2021/04/17 07:52:13;;;;;;;3.00;2.10;;;;;;;8.01;76.89;99647.34;1746829;82;21272;-60
2021/04/17 07:54:54;;;;;;;2.30;1.87;;;;;;;8.09;76.51;99643.34;1727199;82;21145;-60
2021/04/17 07:57:21;;;;;;;2.55;1.70;;;;;;;8.19;75.23;99647.50;1742894;82;21112;-60
2021/04/17 07:59:48;;;;;;;3.15;2.25;;;;;;;8.39;73.96;99648.25;1703846;82;21152;-60
2021/04/17 08:02:16;;;;;;;4.28;2.92;;;;;;;8.47;74.06;99647.75;1752809;82;21584;-61
2021/04/17 08:15:31;;;;;;;4.62;3.30;;;;;;;8.35;73.98;99655.27;1808195;79;23159;-70
2021/04/17 08:17:58;;;;;;;3.52;2.65;;;;;;;8.19;73.91;99658.34;1790341;80;21149;-70
2021/04/17 08:20:26;;;;;;;3.05;2.22;;;;;;;8.18;74.14;99659.97;1757474;81;21196;-69
2021/04/17 08:22:54;;;;;;;3.30;2.10;;;;;;;8.25;74.33;99654.62;1760761;81;21579;-70
2021/04/17 08:25:24;;;;;;;3.05;2.35;;;;;;;8.35;74.28;99661.52;1741343;81;21302;-69
2021/04/17 08:27:51;;;;;;;3.05;2.60;;;;;;;8.50;74.34;99657.54;1730853;81;21165;-71
2021/04/17 08:30:25;;;;;;;2.85;2.12;;;;;;;8.61;73.70;99663.06;1743981;81;21198;-72
2021/04/17 08:32:54;;;;;;;2.75;2.00;;;;;;;8.67;73.79;99664.20;1750042;82;21568;-71
2021/04/17 08:35:23;;;;;;;3.52;2.70;;;;;;;8.65;72.60;99654.12;1749292;81;21169;-71
2021/04/17 08:37:57;;;;;;;2.98;2.25;;;;;;;8.55;73.39;99665.45;1749457;81;21196;-72
2021/04/17 08:40:43;;;;;;;3.87;2.30;;;;;;;8.42;73.30;99664.00;1753840;81;21713;-72
2021/04/17 08:43:19;;;;;;;2.83;2.02;;;;;;;8.40;73.26;99660.71;1753818;81;21172;-67
2021/04/17 08:46:12;;;;;;;2.47;1.70;;;;;;;8.61;73.71;99661.71;1751643;81;21193;-65
2021/04/17 08:48:56;;;;;;;3.05;2.02;;;;;;;8.73;73.24;99663.67;1721150;83;21161;-65
2021/04/17 08:51:37;;;;;;;3.15;2.30;;;;;;;8.67;72.89;99656.59;1692614;84;21303;-65
2021/04/17 08:54:12;;;;;;;3.50;2.30;;;;;;;8.66;72.82;99664.44;1689436;84;21660;-65
2021/04/17 08:56:59;;;;;;;6.10;4.95;;;;;;;8.76;72.17;99662.61;1688249;85;21557;-66
2021/04/17 08:59:32;;;;;;;3.63;2.80;;;;;;;8.76;72.89;99663.97;1700365;83;21142;-66
2021/04/17 09:02:13;;;;;;;3.58;2.40;;;;;;;8.67;73.59;99664.73;1696200;84;21554;-66
2021/04/17 09:04:59;;;;;;;3.08;2.15;;;;;;;8.69;73.36;99659.84;1692513;84;21235;-66
2021/04/17 09:07:28;;;;;;;3.17;2.35;;;;;;;8.82;72.90;99664.27;1691502;84;21182;-66
2021/04/17 09:09:57;;;;;;;3.10;2.37;;;;;;;8.85;72.03;99659.70;1699180;84;21191;-65
2021/04/17 09:12:27;;;;;;;3.20;2.05;;;;;;;8.81;72.01;99668.09;1701923;84;21159;-66
2021/04/17 09:14:58;;;;;;;3.47;2.12;;;;;;;8.77;72.01;99665.61;1681443;83;21188;-66
2021/04/17 09:17:37;;;;;;;3.40;2.22;;;;;;;8.82;71.96;99663.48;1674899;85;21130;-65
2021/04/17 09:20:13;;;;;;;3.37;2.12;;;;;;;8.87;71.85;99659.42;1673819;85;21162;-65
2021/04/17 09:22:46;;;;;;;7.90;5.25;;;;;;;8.93;71.78;99665.97;1671169;85;21288;-65
2021/04/17 09:25:17;;;;;;;6.95;4.35;;;;;;;8.97;71.83;99665.73;1675916;85;21328;-65
2021/04/17 09:27:47;;;;;;;12.78;7.15;;;;;;;8.98;71.79;99666.02;1671674;85;21206;-65
2021/04/17 09:30:18;;;;;;;7.97;5.97;;;;;;;9.05;72.01;99669.03;1649223;85;21712;-65
2021/04/17 09:32:50;;;;;;;7.20;4.60;;;;;;;9.11;71.73;99677.47;1672528;85;21150;-66
2021/04/17 09:35:34;;;;;;;5.90;3.10;;;;;;;9.06;72.23;99672.03;1672741;85;21127;-65
2021/04/17 09:38:08;;;;;;;4.03;3.10;;;;;;;8.99;72.18;99666.30;1668095;85;21198;-66
2021/04/17 09:40:51;;;;;;;6.00;3.15;;;;;;;8.93;72.15;99671.94;1734681;82;21193;-66
2021/04/17 09:43:24;;;;;;;4.17;2.85;;;;;;;8.88;72.01;99668.67;1725565;82;21165;-66
2021/04/17 09:45:53;;;;;;;5.28;3.72;;;;;;;8.90;71.63;99671.94;1740307;82;21284;-66
2021/04/17 09:48:22;;;;;;;6.42;2.98;;;;;;;8.81;71.80;99677.59;1737171;82;21172;-65
2021/04/17 09:50:51;;;;;;;8.33;4.70;;;;;;;8.72;71.72;99677.78;1724542;82;21128;-66
2021/04/17 09:53:22;;;;;;;5.92;4.03;;;;;;;8.66;72.22;99682.08;1725426;82;21246;-65
2021/04/17 09:55:56;;;;;;;13.18;8.95;;;;;;;8.62;72.91;99683.67;1722217;82;21152;-65
2021/04/17 09:58:36;;;;;;;13.13;8.90;;;;;;;8.60;72.71;99680.42;1735270;82;21121;-65
2021/04/17 10:01:14;;;;;;;10.20;7.35;;;;;;;8.54;72.84;99681.47;1732002;82;21145;-65
2021/04/17 10:03:46;;;;;;;5.17;4.05;;;;;;;8.38;73.54;99669.66;1725700;82;21148;-65
2021/04/17 10:06:33;;;;;;;5.58;4.40;;;;;;;8.42;73.86;99689.77;1734068;82;21133;-65
2021/04/17 10:09:16;;;;;;;13.28;8.43;;;;;;;8.44;73.98;99690.32;1724324;82;21168;-65
2021/04/17 10:11:45;;;;;;;15.70;8.98;;;;;;;8.39;74.17;99693.83;1725457;82;21272;-65
2021/04/17 10:14:13;;;;;;;9.23;6.35;;;;;;;8.32;74.76;99693.23;1723102;82;21660;-65
2021/04/17 10:16:47;;;;;;;8.73;6.12;;;;;;;8.27;75.34;99697.20;1721020;83;21614;-65
2021/04/17 10:19:17;;;;;;;6.75;4.70;;;;;;;8.27;75.67;99701.27;1720981;83;21351;-64
2021/04/17 10:21:49;;;;;;;6.33;5.28;;;;;;;8.27;74.97;99703.16;1721670;83;21338;-65
2021/04/17 10:24:36;;;;;;;7.28;5.22;;;;;;;8.18;75.36;99703.36;1692157;83;21176;-65
2021/04/17 10:27:10;;;;;;;6.53;5.00;;;;;;;8.09;75.71;99697.57;1719503;83;21170;-65
2021/04/17 10:29:47;;;;;;;7.70;5.00;;;;;;;8.10;76.02;99697.86;1721031;83;21186;-66
2021/04/17 10:32:19;;;;;;;6.30;4.95;;;;;;;8.15;76.29;99701.95;1720293;83;21187;-66
2021/04/17 10:34:52;;;;;;;19.67;12.75;;;;;;;8.17;76.63;99705.78;1717624;83;21619;-66
2021/04/17 10:37:23;;;;;;;20.68;14.18;;;;;;;8.10;76.64;99711.95;1719660;82;21141;-65
2021/04/17 10:40:08;;;;;;;7.53;5.85;;;;;;;8.02;76.74;99714.58;1721450;83;21289;-65
2021/04/17 10:43:02;;;;;;;7.15;5.47;;;;;;;7.98;76.41;99715.62;1720648;83;21175;-65
2021/04/17 10:45:35;;;;;;;7.45;6.05;;;;;;;8.00;76.67;99721.63;1717738;83;21156;-65
2021/04/17 10:48:19;;;;;;;7.10;5.95;;;;;;;7.97;76.82;99722.11;1721100;83;21162;-65
2021/04/17 10:50:59;;;;;;;8.13;6.65;;;;;;;7.90;76.86;99722.06;1709801;83;21582;-66
2021/04/17 10:53:39;;;;;;;7.33;5.72;;;;;;;7.88;76.85;99721.48;1720919;83;21183;-65
2021/04/17 10:56:22;;;;;;;7.58;6.33;;;;;;;7.94;76.73;99721.27;1722316;83;21587;-66
2021/04/17 10:59:01;;;;;;;8.85;7.00;;;;;;;7.99;76.94;99728.65;1721259;83;21168;-68
2021/04/17 11:01:34;;;;;;;7.60;5.80;;;;;;;7.92;76.67;99732.92;1722445;82;21169;-65
2021/04/17 11:04:01;;;;;;;7.67;5.80;;;;;;;7.89;76.94;99733.97;1722605;83;21168;-64
2021/04/17 11:06:35;;;;;;;8.33;5.37;;;;;;;7.97;77.15;99736.23;1722081;83;21177;-64
2021/04/17 11:09:17;;;;;;;6.75;5.30;;;;;;;8.03;76.75;99728.42;1721141;83;21225;-66
2021/04/17 11:12:00;;;;;;;6.87;4.60;;;;;;;7.98;76.38;99731.06;1721063;83;21579;-66
2021/04/17 11:14:29;;;;;;;5.67;4.70;;;;;;;7.89;76.17;99740.20;1720436;82;21748;-66
2021/04/17 11:16:57;;;;;;;6.62;5.42;;;;;;;7.89;76.57;99746.16;1731331;82;21585;-65
2021/04/17 11:19:36;;;;;;;7.87;6.30;;;;;;;7.95;76.33;99741.89;1738010;82;21336;-66
2021/04/17 11:22:21;;;;;;;7.53;5.95;;;;;;;7.98;76.66;99737.84;1739506;82;21136;-66
2021/04/17 11:27:37;;;;;;;8.53;7.10;;;;;;;7.91;77.10;99735.34;1805737;79;21270;-65
2021/04/17 11:30:07;;;;;;;9.88;7.50;;;;;;;7.89;76.79;99736.14;1764283;80;21188;-66
2021/04/17 11:32:35;;;;;;;8.88;7.53;;;;;;;7.97;76.77;99744.36;1760911;81;21647;-65
2021/04/17 11:35:08;;;;;;;8.33;7.40;;;;;;;8.01;76.94;99742.22;1754579;80;21183;-66
2021/04/17 11:37:37;;;;;;;8.35;6.92;;;;;;;7.99;76.72;99742.20;1732392;81;21141;-66
2021/04/17 11:40:05;;;;;;;23.30;18.77;;;;;;;8.03;76.88;99741.98;1739156;81;21287;-65
2021/04/17 11:42:33;;;;;;;11.18;8.98;;;;;;;8.09;76.75;99737.41;1751828;81;21564;-66
2021/04/17 11:45:00;;;;;;;10.28;7.60;;;;;;;8.11;76.70;99742.89;1730751;81;21338;-66
2021/04/17 11:47:28;;;;;;;16.77;14.80;;;;;;;8.05;76.41;99744.42;1756782;81;21212;-67
2021/04/17 11:49:56;;;;;;;11.73;9.83;;;;;;;7.98;76.63;99740.55;1740642;81;21214;-66
2021/04/17 11:52:23;;;;;;;16.65;12.88;;;;;;;7.95;76.77;99747.31;1735063;81;21132;-66
2021/04/17 11:54:52;;;;;;;13.43;10.20;;;;;;;7.98;76.79;99748.69;1753582;81;21241;-67
2021/04/17 11:57:20;;;;;;;12.33;9.65;;;;;;;8.00;76.66;99754.69;1740313;81;21200;-67
2021/04/17 11:59:48;;;;;;;16.60;13.95;;;;;;;7.94;77.02;99750.27;1742094;81;21206;-66
2021/04/17 12:02:16;;;;;;;13.45;10.43;;;;;;;7.91;77.06;99751.59;1752757;81;21726;-67
2021/04/17 12:04:43;;;;;;;24.15;19.55;;;;;;;7.97;76.64;99757.92;1757703;80;21156;-67
2021/04/17 12:07:10;;;;;;;15.35;12.55;;;;;;;8.01;77.11;99754.95;1756848;80;21152;-66
2021/04/17 12:09:39;;;;;;;13.58;11.68;;;;;;;7.98;77.10;99759.00;1759067;81;21180;-66
2021/04/17 12:12:08;;;;;;;16.10;11.25;;;;;;;7.94;77.45;99754.33;1731247;81;21214;-64
2021/04/17 12:14:36;;;;;;;12.95;9.33;;;;;;;7.99;77.58;99757.11;1732866;81;21181;-64